createdAt,value
2017-11-24T00:00:59.657Z,82.80
2017-11-24T00:03:34.757Z,82.96
2017-11-24T00:06:09.554Z,83.19
2017-11-24T00:08:44.882Z,83.06
2017-11-24T00:11:19.805Z,83.08
2017-11-24T00:13:54.584Z,82.86
2017-11-24T00:16:29.750Z,83.01
2017-11-24T00:19:04.135Z,83.12
2017-11-24T00:21:39.002Z,83.10
2017-11-24T00:24:13.744Z,83.02
2017-11-24T00:26:48.520Z,83.09
2017-11-24T00:29:23.457Z,83.21
2017-11-24T00:31:58.250Z,83.35
2017-11-24T00:34:32.933Z,83.38
2017-11-24T00:37:07.873Z,83.32
2017-11-24T00:39:42.788Z,83.43
2017-11-24T00:42:17.678Z,83.65
2017-11-24T00:44:52.676Z,83.70
2017-11-24T00:47:27.548Z,83.97
2017-11-24T00:50:02.312Z,84.04
2017-11-24T00:52:37.140Z,84.57
2017-11-24T00:55:12.374Z,84.74
2017-11-24T00:57:47.425Z,84.76
2017-11-24T01:00:22.234Z,84.55
2017-11-24T01:02:57.013Z,84.94
2017-11-24T01:05:31.918Z,85.67
2017-11-24T01:08:06.960Z,86.07
2017-11-24T01:10:41.668Z,85.94
2017-11-24T01:13:16.611Z,85.69
2017-11-24T01:15:51.407Z,85.71
2017-11-24T01:18:26.281Z,85.72
2017-11-24T01:21:01.166Z,85.82
2017-11-24T01:23:35.893Z,86.28
2017-11-24T01:26:10.855Z,86.61
2017-11-24T01:28:45.273Z,86.56
2017-11-24T01:31:20.130Z,86.56
2017-11-24T01:33:54.946Z,86.42
2017-11-24T01:36:29.777Z,86.31
2017-11-24T01:39:04.193Z,85.92
2017-11-24T01:41:39.290Z,85.86
2017-11-24T01:44:14.518Z,86.09
2017-11-24T01:46:48.974Z,86.37
2017-11-24T01:49:23.843Z,86.68
2017-11-24T01:51:58.705Z,87.00
2017-11-24T01:54:33.668Z,86.79
2017-11-24T01:57:08.229Z,86.41
2017-11-24T01:59:43.279Z,86.35
2017-11-24T02:02:17.924Z,86.53
2017-11-24T02:04:53.169Z,86.01
2017-11-24T02:07:28.592Z,86.13
2017-11-24T02:10:02.818Z,86.02
2017-11-24T02:12:37.900Z,85.78
2017-11-24T02:15:12.663Z,85.69
2017-11-24T02:17:47.381Z,86.04
2017-11-24T02:20:22.009Z,85.90
2017-11-24T02:22:56.722Z,85.80
2017-11-24T02:25:31.386Z,85.54
2017-11-24T02:28:06.157Z,85.15
2017-11-24T02:30:40.918Z,85.15
2017-11-24T02:33:15.688Z,85.24
2017-11-24T02:35:50.373Z,85.37
2017-11-24T02:38:25.103Z,85.34
2017-11-24T02:40:59.729Z,85.36
2017-11-24T02:43:34.584Z,85.53
2017-11-24T02:46:09.334Z,85.57
2017-11-24T02:48:44.098Z,85.35
2017-11-24T02:51:18.824Z,85.36
2017-11-24T02:53:53.917Z,85.77
2017-11-24T02:56:28.856Z,86.08
2017-11-24T02:59:03.170Z,86.28
2017-11-24T03:01:37.960Z,86.46
2017-11-24T03:04:12.657Z,86.52
2017-11-24T03:06:47.822Z,86.56
2017-11-24T03:09:22.880Z,86.54
2017-11-24T03:11:57.826Z,86.19
2017-11-24T03:14:32.749Z,86.46
2017-11-24T03:17:08.080Z,86.93
2017-11-24T03:19:42.771Z,87.28
2017-11-24T03:22:18.138Z,87.30
2017-11-24T03:24:53.294Z,87.20
2017-11-24T03:27:27.780Z,87.18
2017-11-24T03:30:02.488Z,87.32
2017-11-24T03:32:36.946Z,87.69
2017-11-24T03:35:12.083Z,88.13
2017-11-24T03:37:46.933Z,88.55
2017-11-24T03:40:21.660Z,88.66
2017-11-24T03:42:57.601Z,88.78
2017-11-24T03:45:32.318Z,88.92
2017-11-24T03:48:06.869Z,89.09
2017-11-24T03:50:42.053Z,88.96
2017-11-24T03:53:16.461Z,88.60
2017-11-24T03:55:51.321Z,88.27
2017-11-24T03:58:26.186Z,88.14
2017-11-24T04:01:01.131Z,87.90
2017-11-24T04:03:35.614Z,87.64
2017-11-24T04:06:10.222Z,87.46
2017-11-24T04:08:45.092Z,87.36
2017-11-24T04:11:19.249Z,87.37
2017-11-24T04:13:54.279Z,87.50
2017-11-24T04:16:28.890Z,87.71
2017-11-24T04:19:03.982Z,87.90
2017-11-24T04:21:38.137Z,88.13
2017-11-24T04:24:13.233Z,88.35
2017-11-24T04:26:47.639Z,88.58
2017-11-24T04:29:22.726Z,88.77
2017-11-24T04:31:57.894Z,89.21
2017-11-24T04:34:32.774Z,89.39
2017-11-24T04:37:07.845Z,89.78
2017-11-24T04:39:42.124Z,90.27
2017-11-24T04:42:16.778Z,90.68
2017-11-24T04:44:51.601Z,91.44
2017-11-24T04:47:26.757Z,91.64
2017-11-24T04:50:01.541Z,92.44
2017-11-24T04:52:37.008Z,92.77
2017-11-24T04:55:11.455Z,92.89
2017-11-24T04:57:46.377Z,92.92
2017-11-24T05:00:20.836Z,92.89
2017-11-24T05:02:55.832Z,92.86
2017-11-24T05:05:30.641Z,93.33
2017-11-24T05:08:05.764Z,93.56
2017-11-24T05:10:40.332Z,93.59
2017-11-24T05:13:15.291Z,93.65
2017-11-24T05:15:50.327Z,93.88
2017-11-24T05:18:25.130Z,94.17
2017-11-24T05:20:59.882Z,94.50
2017-11-24T05:23:35.020Z,94.79
2017-11-24T05:26:09.757Z,94.88
2017-11-24T05:28:44.668Z,94.93
2017-11-24T05:31:19.784Z,94.90
2017-11-24T05:33:54.854Z,94.89
2017-11-24T05:36:29.577Z,95.08
2017-11-24T05:39:03.663Z,95.43
2017-11-24T05:41:38.155Z,95.66
2017-11-24T05:44:13.333Z,95.80
2017-11-24T05:46:48.409Z,96.11
2017-11-24T05:49:23.299Z,97.55
2017-11-24T05:51:58.045Z,98.68
2017-11-24T05:54:32.877Z,98.86
2017-11-24T05:57:07.572Z,98.39
2017-11-24T05:59:42.480Z,97.98
2017-11-24T06:02:17.209Z,97.48
2017-11-24T06:04:51.809Z,96.87
2017-11-24T06:07:26.529Z,96.32
2017-11-24T06:10:01.515Z,95.92
2017-11-24T06:12:36.446Z,95.45
2017-11-24T06:15:11.302Z,95.32
2017-11-24T06:17:46.129Z,95.15
2017-11-24T06:20:20.968Z,95.13
2017-11-24T06:22:56.103Z,95.38
2017-11-24T06:25:30.840Z,95.26
2017-11-24T06:28:05.770Z,95.18
2017-11-24T06:30:40.625Z,94.46
2017-11-24T06:33:15.529Z,94.55
2017-11-24T06:35:50.386Z,92.86
2017-11-24T06:38:25.040Z,92.02
2017-11-24T06:41:00.066Z,91.69
2017-11-24T06:43:34.737Z,92.23
2017-11-24T06:46:09.740Z,91.75
2017-11-24T06:48:44.650Z,92.06
2017-11-24T06:51:20.296Z,92.10
2017-11-24T06:53:54.993Z,90.89
2017-11-24T06:56:29.960Z,92.06
2017-11-24T06:59:04.695Z,90.70
2017-11-24T07:01:39.307Z,90.61
2017-11-24T07:04:13.887Z,91.16
2017-11-24T07:06:48.294Z,90.34
2017-11-24T07:09:22.753Z,90.07
2017-11-24T07:11:57.582Z,90.35
2017-11-24T07:14:32.477Z,89.45
2017-11-24T07:17:06.723Z,89.33
2017-11-24T07:19:41.514Z,89.18
2017-11-24T07:22:16.296Z,88.29
2017-11-24T07:24:51.050Z,88.92
2017-11-24T07:27:26.030Z,89.61
2017-11-24T07:30:00.909Z,89.99
2017-11-24T07:32:35.561Z,90.18
2017-11-24T07:35:10.287Z,89.98
2017-11-24T07:37:45.012Z,90.40
2017-11-24T07:40:19.858Z,89.83
2017-11-24T07:42:54.654Z,89.14
2017-11-24T07:45:29.387Z,89.29
2017-11-24T07:48:04.459Z,89.82
2017-11-24T07:50:39.214Z,89.09
2017-11-24T07:53:14.266Z,88.96
2017-11-24T07:55:49.112Z,89.17
2017-11-24T07:58:24.046Z,89.48
2017-11-24T08:00:58.664Z,89.94
2017-11-24T08:03:33.721Z,90.84
2017-11-24T08:06:08.533Z,91.02
2017-11-24T08:08:43.185Z,91.10
2017-11-24T08:11:17.908Z,90.67
2017-11-24T08:13:52.653Z,90.77
2017-11-24T08:16:27.670Z,91.22
2017-11-24T08:19:02.549Z,90.81
2017-11-24T08:21:37.121Z,90.24
2017-11-24T08:24:12.241Z,90.04
2017-11-24T08:26:46.872Z,89.60
2017-11-24T08:29:21.371Z,89.72
2017-11-24T08:31:56.270Z,88.78
2017-11-24T08:34:30.809Z,87.15
2017-11-24T08:37:05.616Z,86.95
2017-11-24T08:39:40.549Z,86.40
2017-11-24T08:42:15.523Z,86.26
2017-11-24T08:44:50.281Z,85.98
2017-11-24T08:47:30.565Z,87.01
2017-11-24T08:50:05.056Z,88.47
2017-11-24T08:52:39.933Z,90.60
2017-11-24T08:55:14.819Z,90.93
2017-11-24T08:57:49.773Z,89.41
2017-11-24T09:00:24.147Z,88.18
2017-11-24T09:02:59.085Z,87.01
2017-11-24T09:05:34.253Z,87.10
2017-11-24T09:08:09.132Z,87.05
2017-11-24T09:10:43.778Z,87.76
2017-11-24T09:13:18.741Z,87.77
2017-11-24T09:15:53.692Z,87.37
2017-11-24T09:18:28.557Z,87.21
2017-11-24T09:21:03.463Z,86.55
2017-11-24T09:23:38.475Z,87.57
2017-11-24T09:26:13.218Z,89.16
2017-11-24T09:28:48.037Z,87.74
2017-11-24T09:31:22.566Z,86.82
2017-11-24T09:33:57.222Z,86.18
2017-11-24T09:36:32.233Z,81.91
2017-11-24T09:39:07.073Z,81.00
2017-11-24T09:41:41.414Z,80.20
2017-11-24T09:44:16.298Z,77.57
2017-11-24T09:46:51.228Z,78.50
2017-11-24T09:49:26.085Z,80.32
2017-11-24T09:52:00.551Z,82.03
2017-11-24T09:54:35.258Z,82.54
2017-11-24T09:57:10.025Z,82.95
2017-11-24T09:59:44.613Z,80.49
2017-11-24T10:02:19.597Z,80.71
2017-11-24T10:04:54.810Z,81.87
2017-11-24T10:07:29.698Z,81.58
2017-11-24T10:10:04.209Z,79.87
2017-11-24T10:12:39.241Z,79.90
2017-11-24T10:15:14.205Z,81.40
2017-11-24T10:17:49.057Z,83.75
2017-11-24T10:20:23.521Z,83.96
2017-11-24T10:22:59.029Z,83.89
2017-11-24T10:25:33.496Z,83.10
2017-11-24T10:28:08.444Z,80.15
2017-11-24T10:30:43.214Z,80.67
2017-11-24T10:33:18.399Z,81.52
2017-11-24T10:35:53.541Z,82.83
2017-11-24T10:38:28.093Z,83.77
2017-11-24T10:41:03.202Z,83.76
2017-11-24T10:43:37.697Z,82.81
2017-11-24T10:46:12.661Z,82.61
2017-11-24T10:48:47.429Z,83.86
2017-11-24T10:51:22.167Z,83.90
2017-11-24T10:53:56.872Z,85.41
2017-11-24T10:56:31.801Z,83.74
2017-11-24T10:59:06.873Z,83.91
2017-11-24T11:16:29.836Z,82.97
2017-11-24T11:19:04.762Z,83.37
2017-11-24T11:21:39.587Z,84.68
2017-11-24T11:24:14.511Z,84.58
2017-11-24T11:26:49.415Z,85.22
2017-11-24T11:29:24.163Z,83.92
2017-11-24T11:31:59.094Z,83.19
2017-11-24T11:34:34.150Z,83.53
2017-11-24T11:37:08.873Z,81.77
2017-11-24T11:39:43.311Z,82.86
2017-11-24T11:42:18.415Z,80.71
2017-11-24T11:44:53.365Z,80.30
2017-11-24T11:47:28.070Z,80.26
2017-11-24T11:50:02.786Z,80.97
2017-11-24T11:52:37.904Z,80.62
2017-11-24T11:55:12.751Z,81.90
2017-11-24T11:57:47.774Z,81.98
2017-11-24T12:00:22.331Z,82.83
2017-11-24T12:02:57.090Z,80.30
2017-11-24T12:05:32.110Z,80.27
2017-11-24T12:08:06.787Z,81.87
2017-11-24T12:10:41.694Z,82.68
2017-11-24T12:13:16.487Z,82.32
2017-11-24T12:15:51.237Z,83.16
2017-11-24T12:18:26.461Z,83.40
2017-11-24T12:21:01.188Z,84.56
2017-11-24T12:23:36.007Z,83.37
2017-11-24T12:26:10.889Z,84.32
2017-11-24T12:28:45.697Z,85.66
2017-11-24T12:31:20.631Z,85.82
2017-11-24T12:33:55.451Z,85.38
2017-11-24T12:36:30.307Z,83.30
2017-11-24T12:39:08.811Z,81.06
2017-11-24T12:41:43.882Z,81.50
2017-11-24T12:44:18.927Z,82.28
2017-11-24T12:46:53.386Z,81.83
2017-11-24T12:49:28.465Z,81.74
2017-11-24T12:52:03.634Z,82.17
2017-11-24T12:54:38.568Z,81.88
2017-11-24T12:57:13.487Z,82.94
2017-11-24T12:59:48.262Z,84.42
2017-11-24T13:02:23.148Z,82.91
2017-11-24T13:04:58.137Z,84.44
2017-11-24T13:07:33.042Z,85.10
2017-11-24T13:10:08.097Z,85.09
2017-11-24T13:12:42.999Z,85.21
2017-11-24T13:15:17.928Z,84.32
2017-11-24T13:17:55.678Z,84.36
2017-11-24T13:20:30.467Z,84.74
2017-11-24T13:23:05.842Z,86.64
2017-11-24T13:25:40.826Z,85.25
2017-11-24T13:28:15.651Z,84.77
2017-11-24T13:30:50.398Z,84.66
2017-11-24T13:33:25.118Z,82.53
2017-11-24T13:36:00.659Z,81.95
2017-11-24T13:38:36.163Z,83.54
2017-11-24T13:41:11.318Z,82.33
2017-11-24T13:43:46.586Z,83.25
2017-11-24T13:46:21.468Z,82.66
2017-11-24T13:48:57.026Z,83.16
2017-11-24T13:51:31.951Z,82.36
2017-11-24T13:54:07.010Z,82.67
2017-11-24T13:56:41.819Z,84.56
2017-11-24T13:59:16.695Z,84.74
2017-11-24T14:01:53.953Z,82.82
2017-11-24T14:04:30.690Z,82.21
2017-11-24T14:07:05.280Z,79.03
2017-11-24T14:09:40.273Z,77.18
2017-11-24T14:12:14.914Z,79.71
2017-11-24T14:14:49.625Z,80.15
2017-11-24T14:17:24.545Z,80.78
2017-11-24T14:19:59.170Z,81.31
2017-11-24T14:22:34.044Z,82.07
2017-11-24T14:25:09.163Z,84.57
2017-11-24T14:27:44.108Z,83.73
2017-11-24T14:30:18.999Z,82.35
2017-11-24T14:32:53.989Z,82.80
2017-11-24T14:35:28.564Z,81.28
2017-11-24T14:38:03.433Z,80.45
2017-11-24T14:40:38.152Z,79.83
2017-11-24T14:43:13.844Z,79.39
2017-11-24T14:45:49.854Z,80.08
2017-11-24T14:48:29.326Z,79.45
2017-11-24T14:51:04.188Z,79.34
2017-11-24T14:53:39.119Z,78.72
2017-11-24T14:56:14.076Z,76.49
2017-11-24T14:58:49.354Z,76.97
2017-11-24T15:01:24.057Z,76.87
2017-11-24T15:03:58.674Z,77.22
2017-11-24T15:06:33.655Z,76.99
2017-11-24T15:09:08.587Z,77.77
2017-11-24T15:11:43.676Z,78.54
2017-11-24T15:14:19.089Z,78.28
2017-11-24T15:16:53.757Z,78.11
2017-11-24T15:19:28.599Z,77.50
2017-11-24T15:22:03.434Z,76.15
2017-11-24T15:24:38.370Z,79.73
2017-11-24T15:27:13.388Z,80.51
2017-11-24T15:29:48.639Z,80.45
2017-11-24T15:32:23.370Z,80.02
2017-11-24T15:34:58.143Z,79.01
2017-11-24T15:37:32.778Z,78.34
2017-11-24T15:40:07.580Z,75.78
2017-11-24T15:42:42.328Z,75.00
2017-11-24T15:45:17.134Z,75.87
2017-11-24T15:47:52.040Z,76.91
2017-11-24T15:50:26.890Z,77.79
2017-11-24T15:53:01.651Z,78.81
2017-11-24T15:55:36.279Z,79.47
2017-11-24T15:58:11.779Z,80.07
2017-11-24T16:00:46.832Z,80.58
2017-11-24T16:03:21.495Z,81.00
2017-11-24T16:05:56.582Z,81.47
2017-11-24T16:08:31.506Z,81.89
2017-11-24T16:11:06.359Z,82.38
2017-11-24T16:13:42.476Z,82.85
2017-11-24T16:16:23.271Z,83.29
2017-11-24T16:18:58.522Z,83.70
2017-11-24T16:21:33.124Z,84.08
2017-11-24T16:24:07.753Z,84.48
2017-11-24T16:26:43.082Z,84.82
2017-11-24T16:29:18.198Z,85.16
2017-11-24T16:31:53.098Z,85.62
2017-11-24T16:34:28.333Z,86.00
2017-11-24T16:37:03.083Z,86.52
2017-11-24T16:39:37.815Z,86.83
2017-11-24T16:42:12.331Z,87.17
2017-11-24T16:44:47.339Z,87.44
2017-11-24T16:47:22.184Z,87.86
2017-11-24T16:49:56.543Z,89.51
2017-11-24T16:52:31.414Z,90.99
2017-11-24T16:55:06.336Z,91.85
2017-11-24T16:57:41.088Z,92.39
2017-11-24T17:00:15.475Z,92.48
2017-11-24T17:02:50.543Z,92.32
2017-11-24T17:05:25.298Z,92.00
2017-11-24T17:08:00.355Z,91.68
2017-11-24T17:10:35.155Z,91.31
2017-11-24T17:13:09.878Z,90.75
2017-11-24T17:15:44.635Z,90.23
2017-11-24T17:18:19.315Z,90.01
2017-11-24T17:20:54.239Z,90.04
2017-11-24T17:23:31.007Z,90.41
2017-11-24T17:26:05.522Z,90.70
2017-11-24T17:28:40.899Z,90.82
2017-11-24T17:31:17.263Z,90.99
2017-11-24T17:33:52.190Z,91.20
2017-11-24T17:36:27.242Z,91.52
2017-11-24T17:39:02.371Z,91.74
2017-11-24T17:41:37.720Z,91.85
2017-11-24T17:44:12.565Z,91.95
2017-11-24T17:46:47.394Z,92.02
2017-11-24T17:49:22.507Z,92.26
2017-11-24T17:51:57.129Z,92.83
2017-11-24T17:54:32.491Z,93.26
2017-11-24T17:57:07.578Z,93.71
2017-11-24T17:59:42.376Z,94.25
2017-11-24T18:02:17.514Z,94.59
2017-11-24T18:04:52.570Z,94.75
2017-11-24T18:07:26.599Z,95.08
2017-11-24T18:10:01.787Z,95.28
2017-11-24T18:12:36.887Z,95.28
2017-11-24T18:15:12.021Z,95.02
2017-11-24T18:17:46.384Z,94.70
2017-11-24T18:20:21.801Z,94.39
2017-11-24T18:22:56.971Z,94.13
2017-11-24T18:25:32.055Z,93.92
2017-11-24T18:28:06.698Z,93.72
2017-11-24T18:30:41.290Z,93.52
2017-11-24T18:33:15.956Z,93.35
2017-11-24T18:35:50.611Z,93.14
2017-11-24T18:38:25.326Z,92.83
2017-11-24T18:41:00.379Z,92.51
2017-11-24T18:43:35.490Z,92.44
2017-11-24T18:46:10.307Z,92.69
2017-11-24T18:48:45.493Z,93.05
2017-11-24T18:51:20.351Z,93.29
2017-11-24T18:53:55.491Z,93.53
2017-11-24T18:56:30.411Z,93.72
2017-11-24T18:59:05.638Z,93.76
2017-11-24T19:01:40.243Z,93.77
2017-11-24T19:04:15.261Z,93.77
2017-11-24T19:06:50.128Z,93.71
2017-11-24T19:09:25.185Z,93.92
2017-11-24T19:11:59.479Z,94.11
2017-11-24T19:14:34.754Z,94.28
2017-11-24T19:17:09.359Z,94.43
2017-11-24T19:19:44.215Z,94.63
2017-11-24T19:22:18.995Z,94.82
2017-11-24T19:24:53.850Z,94.96
2017-11-24T19:27:28.402Z,95.09
2017-11-24T19:30:03.399Z,95.24
2017-11-24T19:32:37.777Z,95.24
2017-11-24T19:35:12.594Z,95.17
2017-11-24T19:37:47.355Z,95.27
2017-11-24T19:40:22.443Z,95.47
2017-11-24T19:42:57.092Z,95.63
2017-11-24T19:45:32.122Z,95.99
2017-11-24T19:48:06.519Z,96.44
2017-11-24T19:50:41.894Z,100.00
2017-11-24T19:53:16.785Z,100.00
2017-11-24T19:55:51.779Z,100.00
2017-11-24T19:58:26.546Z,99.93
2017-11-24T20:01:01.725Z,94.52
2017-11-24T20:03:37.003Z,91.97
2017-11-24T20:06:11.955Z,91.90
2017-11-24T20:08:46.687Z,92.61
2017-11-24T20:11:21.444Z,92.90
2017-11-24T20:13:56.252Z,93.00
2017-11-24T20:16:31.271Z,93.38
2017-11-24T20:19:06.155Z,93.75
2017-11-24T20:21:41.059Z,94.30
2017-11-24T20:24:15.806Z,94.71
2017-11-24T20:26:50.519Z,95.03
2017-11-24T20:29:25.363Z,95.43
2017-11-24T20:32:00.156Z,95.78
2017-11-24T20:34:34.991Z,95.84
2017-11-24T20:37:09.828Z,95.97
2017-11-24T20:39:44.674Z,96.16
2017-11-24T20:42:19.407Z,96.34
2017-11-24T20:44:54.214Z,96.49
2017-11-24T20:47:29.143Z,96.72
2017-11-24T20:50:03.656Z,96.83
2017-11-24T20:52:38.576Z,96.65
2017-11-24T20:55:13.790Z,96.64
2017-11-24T20:57:48.475Z,96.77
2017-11-24T21:00:23.591Z,96.53
2017-11-24T21:02:58.407Z,96.46
2017-11-24T21:05:33.519Z,96.59
2017-11-24T21:08:08.614Z,96.75
2017-11-24T21:10:43.452Z,96.76
2017-11-24T21:13:18.587Z,96.81
2017-11-24T21:15:53.538Z,96.65
2017-11-24T21:18:28.604Z,96.46
2017-11-24T21:21:03.097Z,96.35
2017-11-24T21:23:38.031Z,96.55
2017-11-24T21:26:12.898Z,96.66
2017-11-24T21:28:47.925Z,96.66
2017-11-24T21:31:22.847Z,99.29
2017-11-24T21:33:57.770Z,100.00
2017-11-24T21:36:32.553Z,99.16
2017-11-24T21:39:07.610Z,95.97
2017-11-24T21:41:42.555Z,94.80
2017-11-24T21:44:17.406Z,94.28
2017-11-24T21:46:52.386Z,94.03
2017-11-24T21:49:27.241Z,93.87
2017-11-24T21:52:02.071Z,93.40
2017-11-24T21:54:37.361Z,93.85
2017-11-24T21:57:12.809Z,94.48
2017-11-24T21:59:47.631Z,94.98
2017-11-24T22:02:22.555Z,95.38
2017-11-24T22:04:57.343Z,95.67
2017-11-24T22:07:32.282Z,95.97
2017-11-24T22:10:07.045Z,96.19
2017-11-24T22:12:42.070Z,96.32
2017-11-24T22:15:17.099Z,96.46
2017-11-24T22:17:52.150Z,96.65
2017-11-24T22:20:27.280Z,96.78
2017-11-24T22:23:02.126Z,96.87
2017-11-24T22:25:37.459Z,96.87
2017-11-24T22:28:12.403Z,96.88
2017-11-24T22:30:47.202Z,96.94
2017-11-24T22:33:21.984Z,97.12
2017-11-24T22:35:56.876Z,97.43
2017-11-24T22:38:31.624Z,97.60
2017-11-24T22:41:06.411Z,97.79
2017-11-24T22:43:41.614Z,98.12
2017-11-24T22:46:16.401Z,98.37
2017-11-24T22:48:51.975Z,98.55
2017-11-24T22:51:26.554Z,98.64
2017-11-24T22:54:02.063Z,98.65
2017-11-24T22:56:36.659Z,98.55
2017-11-24T22:59:11.620Z,98.37
2017-11-24T23:01:46.227Z,98.17
2017-11-24T23:04:21.107Z,97.99
2017-11-24T23:06:56.221Z,97.77
2017-11-24T23:09:30.720Z,97.60
2017-11-24T23:12:05.784Z,97.49
2017-11-24T23:14:40.587Z,97.36
2017-11-24T23:17:15.611Z,97.15
2017-11-24T23:19:50.534Z,96.85
2017-11-24T23:22:25.562Z,96.59
2017-11-24T23:25:00.396Z,96.40
2017-11-24T23:27:35.447Z,96.24
2017-11-24T23:30:10.418Z,96.07
2017-11-24T23:32:45.255Z,96.01
2017-11-24T23:35:20.430Z,96.09
2017-11-24T23:37:55.688Z,96.12
2017-11-24T23:40:30.716Z,96.02
2017-11-24T23:43:05.578Z,95.99
2017-11-24T23:45:40.348Z,96.06
2017-11-24T23:48:15.375Z,96.22
2017-11-24T23:50:50.279Z,96.17
2017-11-24T23:53:25.425Z,96.02
2017-11-24T23:56:00.312Z,95.96
2017-11-24T23:58:35.434Z,96.00
